Accueil
METAR-TAF:

METAR-TAF

Aéroports :

Aéroport de Southampton

Southampton, Angleterre

latitude: 50-54N, longitude: 001-24W, altitude: 9 m

Observation

Le bulletin a été fait il y a 6 heures et 5 minutes, à 20:50 UTC
Vent 4 kt de nord
Température 6°C
Humidité 70%
Pression 1022 hPa
Visibilité 10 km ou plus
pas de nuages en-dessous de 1500 mètres et pas de cumulonimbus.

METAR: EGHI 232050Z 01004KT CAVOK 06/01 Q1022

Heure: 03:55 (02:55 UTC)

Prévision

Le bulletin a été fait il y a 9 heures et 53 minutes, à 17:02 UTC
Prévision valable du 23 à 18 UTC au 23 à 22 UTC
Vent 8 kt de nord
Visibilité 10 km ou plus
Nuages épars à une hauteur de 4000 ft

TAF: EGHI 231702Z 2318/2322 01008KT 9999 SCT040

Observations et prévisions météorologiques de plus de 4000 aéroports (messages METAR et TAF).

Les stations disponibles sont représentées par des disques jaunes et rouges sur la carte.

Passer la souris dessus pour voir le nom de la station.

Cliquer dessus pour voir les observations et prévisions météorologiques.

Pour changer de carte: cliquez sur les boutons verts avec une croix noire pour zoomer, sur le bouton vert avec un tiret pour effectuer un zoom arrière, ou sur les flèches vertes pour les cartes adjacentes.


METAR-TAF: